sensor_id;sensor_type;location;lat;lon;timestamp;P1;durP1;ratioP1;P2;durP2;ratioP2
54193;SDS011;40102;50.906;6.972;2022-08-21T00:00:48;7.60;;;4.38;;
54193;SDS011;40102;50.906;6.972;2022-08-21T00:03:14;7.22;;;3.80;;
54193;SDS011;40102;50.906;6.972;2022-08-21T00:05:45;5.97;;;3.72;;
54193;SDS011;40102;50.906;6.972;2022-08-21T00:08:14;6.68;;;3.30;;
54193;SDS011;40102;50.906;6.972;2022-08-21T00:10:40;6.43;;;3.63;;
54193;SDS011;40102;50.906;6.972;2022-08-21T00:13:07;6.18;;;4.00;;
54193;SDS011;40102;50.906;6.972;2022-08-21T00:15:34;7.35;;;3.90;;
54193;SDS011;40102;50.906;6.972;2022-08-21T00:18:01;9.48;;;4.20;;
54193;SDS011;40102;50.906;6.972;2022-08-21T00:20:26;6.32;;;3.80;;
54193;SDS011;40102;50.906;6.972;2022-08-21T00:22:52;7.60;;;3.90;;
54193;SDS011;40102;50.906;6.972;2022-08-21T00:25:18;5.22;;;3.42;;
54193;SDS011;40102;50.906;6.972;2022-08-21T00:27:44;6.88;;;3.63;;
54193;SDS011;40102;50.906;6.972;2022-08-21T00:30:11;7.07;;;3.75;;
54193;SDS011;40102;50.906;6.972;2022-08-21T00:32:38;7.57;;;3.35;;
54193;SDS011;40102;50.906;6.972;2022-08-21T00:35:06;5.40;;;3.28;;
54193;SDS011;40102;50.906;6.972;2022-08-21T00:37:33;5.50;;;3.03;;
54193;SDS011;40102;50.906;6.972;2022-08-21T00:39:59;6.93;;;3.00;;
54193;SDS011;40102;50.906;6.972;2022-08-21T00:42:24;5.38;;;3.30;;
54193;SDS011;40102;50.906;6.972;2022-08-21T00:44:50;6.80;;;3.20;;
54193;SDS011;40102;50.906;6.972;2022-08-21T00:47:18;6.18;;;3.35;;
54193;SDS011;40102;50.906;6.972;2022-08-21T00:49:44;5.63;;;3.53;;
54193;SDS011;40102;50.906;6.972;2022-08-21T00:52:11;8.60;;;3.25;;
54193;SDS011;40102;50.906;6.972;2022-08-21T00:54:40;7.80;;;3.42;;
54193;SDS011;40102;50.906;6.972;2022-08-21T00:57:09;7.18;;;3.60;;
54193;SDS011;40102;50.906;6.972;2022-08-21T00:59:38;7.15;;;3.60;;
54193;SDS011;40102;50.906;6.972;2022-08-21T01:02:05;8.07;;;3.58;;
54193;SDS011;40102;50.906;6.972;2022-08-21T01:04:33;5.93;;;3.28;;
54193;SDS011;40102;50.906;6.972;2022-08-21T01:06:59;4.43;;;3.08;;
54193;SDS011;40102;50.906;6.972;2022-08-21T01:09:25;4.80;;;3.28;;
54193;SDS011;40102;50.906;6.972;2022-08-21T01:11:51;4.75;;;3.35;;
54193;SDS011;40102;50.906;6.972;2022-08-21T01:14:16;5.05;;;3.17;;
54193;SDS011;40102;50.906;6.972;2022-08-21T01:16:45;4.70;;;3.10;;
54193;SDS011;40102;50.906;6.972;2022-08-21T01:19:13;6.95;;;4.22;;
54193;SDS011;40102;50.906;6.972;2022-08-21T01:21:39;9.13;;;4.57;;
54193;SDS011;40102;50.906;6.972;2022-08-21T01:24:05;11.75;;;4.38;;
54193;SDS011;40102;50.906;6.972;2022-08-21T01:26:32;8.40;;;4.55;;
54193;SDS011;40102;50.906;6.972;2022-08-21T01:31:28;9.02;;;5.00;;
54193;SDS011;40102;50.906;6.972;2022-08-21T01:33:56;7.40;;;4.65;;
54193;SDS011;40102;50.906;6.972;2022-08-21T01:36:22;6.22;;;4.20;;
54193;SDS011;40102;50.906;6.972;2022-08-21T01:38:48;8.35;;;4.50;;
54193;SDS011;40102;50.906;6.972;2022-08-21T01:41:15;6.28;;;4.22;;
54193;SDS011;40102;50.906;6.972;2022-08-21T01:43:41;7.63;;;4.88;;
54193;SDS011;40102;50.906;6.972;2022-08-21T01:46:07;10.00;;;4.65;;
54193;SDS011;40102;50.906;6.972;2022-08-21T01:48:34;8.25;;;4.68;;
54193;SDS011;40102;50.906;6.972;2022-08-21T01:50:59;7.70;;;4.32;;
54193;SDS011;40102;50.906;6.972;2022-08-21T01:53:25;7.88;;;4.50;;
54193;SDS011;40102;50.906;6.972;2022-08-21T01:55:50;8.02;;;4.38;;
54193;SDS011;40102;50.906;6.972;2022-08-21T01:58:15;11.43;;;5.32;;
54193;SDS011;40102;50.906;6.972;2022-08-21T02:00:41;7.95;;;5.15;;
54193;SDS011;40102;50.906;6.972;2022-08-21T02:03:06;7.60;;;4.95;;
54193;SDS011;40102;50.906;6.972;2022-08-21T02:05:32;7.68;;;5.00;;
54193;SDS011;40102;50.906;6.972;2022-08-21T02:07:57;7.72;;;5.47;;
54193;SDS011;40102;50.906;6.972;2022-08-21T02:10:26;9.00;;;4.85;;
54193;SDS011;40102;50.906;6.972;2022-08-21T02:12:54;7.57;;;5.25;;
54193;SDS011;40102;50.906;6.972;2022-08-21T02:15:20;8.27;;;4.85;;
54193;SDS011;40102;50.906;6.972;2022-08-21T02:17:52;9.98;;;6.53;;
54193;SDS011;40102;50.906;6.972;2022-08-21T02:20:23;9.20;;;6.28;;
54193;SDS011;40102;50.906;6.972;2022-08-21T02:22:53;14.18;;;7.25;;
54193;SDS011;40102;50.906;6.972;2022-08-21T02:25:19;8.23;;;6.38;;
54193;SDS011;40102;50.906;6.972;2022-08-21T02:27:46;11.38;;;6.90;;
54193;SDS011;40102;50.906;6.972;2022-08-21T02:30:17;9.85;;;6.40;;
54193;SDS011;40102;50.906;6.972;2022-08-21T02:32:44;10.70;;;6.72;;
54193;SDS011;40102;50.906;6.972;2022-08-21T02:35:10;9.18;;;6.57;;
54193;SDS011;40102;50.906;6.972;2022-08-21T02:37:49;12.55;;;7.38;;
54193;SDS011;40102;50.906;6.972;2022-08-21T02:40:22;11.98;;;7.60;;
54193;SDS011;40102;50.906;6.972;2022-08-21T02:42:49;9.43;;;6.75;;
54193;SDS011;40102;50.906;6.972;2022-08-21T02:45:15;8.93;;;6.70;;
54193;SDS011;40102;50.906;6.972;2022-08-21T02:47:53;8.35;;;6.57;;
54193;SDS011;40102;50.906;6.972;2022-08-21T02:50:25;13.50;;;7.13;;
54193;SDS011;40102;50.906;6.972;2022-08-21T02:52:53;11.55;;;6.60;;
54193;SDS011;40102;50.906;6.972;2022-08-21T02:55:19;11.07;;;6.25;;
54193;SDS011;40102;50.906;6.972;2022-08-21T02:57:50;6.97;;;5.60;;
54193;SDS011;40102;50.906;6.972;2022-08-21T03:00:16;11.55;;;6.10;;
54193;SDS011;40102;50.906;6.972;2022-08-21T03:02:42;10.90;;;6.55;;
54193;SDS011;40102;50.906;6.972;2022-08-21T03:05:08;11.10;;;5.88;;
54193;SDS011;40102;50.906;6.972;2022-08-21T03:07:36;11.52;;;5.55;;
54193;SDS011;40102;50.906;6.972;2022-08-21T03:10:03;8.10;;;5.32;;
54193;SDS011;40102;50.906;6.972;2022-08-21T03:12:29;8.80;;;5.15;;
54193;SDS011;40102;50.906;6.972;2022-08-21T03:14:54;7.65;;;4.72;;
54193;SDS011;40102;50.906;6.972;2022-08-21T03:17:20;7.55;;;4.10;;
54193;SDS011;40102;50.906;6.972;2022-08-21T03:19:45;10.07;;;4.78;;
54193;SDS011;40102;50.906;6.972;2022-08-21T03:22:10;9.63;;;5.10;;
54193;SDS011;40102;50.906;6.972;2022-08-21T03:24:36;7.22;;;4.68;;
54193;SDS011;40102;50.906;6.972;2022-08-21T03:27:02;11.38;;;5.25;;
54193;SDS011;40102;50.906;6.972;2022-08-21T03:29:28;9.00;;;4.75;;
54193;SDS011;40102;50.906;6.972;2022-08-21T03:31:53;9.07;;;4.78;;
54193;SDS011;40102;50.906;6.972;2022-08-21T03:34:20;9.10;;;4.60;;
54193;SDS011;40102;50.906;6.972;2022-08-21T03:36:46;7.97;;;4.50;;
54193;SDS011;40102;50.906;6.972;2022-08-21T03:39:15;7.65;;;4.40;;
54193;SDS011;40102;50.906;6.972;2022-08-21T03:41:42;9.77;;;4.55;;
54193;SDS011;40102;50.906;6.972;2022-08-21T03:44:07;6.85;;;4.70;;
54193;SDS011;40102;50.906;6.972;2022-08-21T03:46:33;9.05;;;5.00;;
54193;SDS011;40102;50.906;6.972;2022-08-21T03:48:59;9.07;;;4.82;;
54193;SDS011;40102;50.906;6.972;2022-08-21T03:51:24;8.88;;;5.00;;
54193;SDS011;40102;50.906;6.972;2022-08-21T03:53:50;9.35;;;5.07;;
54193;SDS011;40102;50.906;6.972;2022-08-21T03:56:16;10.68;;;4.63;;
54193;SDS011;40102;50.906;6.972;2022-08-21T03:58:41;6.38;;;4.35;;
54193;SDS011;40102;50.906;6.972;2022-08-21T04:01:07;8.63;;;4.22;;
54193;SDS011;40102;50.906;6.972;2022-08-21T04:03:34;10.15;;;5.22;;
54193;SDS011;40102;50.906;6.972;2022-08-21T04:06:01;10.48;;;4.88;;
54193;SDS011;40102;50.906;6.972;2022-08-21T04:08:27;7.10;;;4.32;;
54193;SDS011;40102;50.906;6.972;2022-08-21T04:10:53;9.82;;;4.47;;
54193;SDS011;40102;50.906;6.972;2022-08-21T04:13:21;7.32;;;4.65;;
54193;SDS011;40102;50.906;6.972;2022-08-21T04:15:47;9.25;;;4.57;;
54193;SDS011;40102;50.906;6.972;2022-08-21T04:18:13;11.95;;;4.70;;
54193;SDS011;40102;50.906;6.972;2022-08-21T04:20:39;11.55;;;4.65;;
54193;SDS011;40102;50.906;6.972;2022-08-21T04:23:07;11.45;;;4.53;;
54193;SDS011;40102;50.906;6.972;2022-08-21T04:25:32;8.85;;;4.63;;
54193;SDS011;40102;50.906;6.972;2022-08-21T04:27:59;6.63;;;4.47;;
54193;SDS011;40102;50.906;6.972;2022-08-21T04:30:24;8.35;;;4.97;;
54193;SDS011;40102;50.906;6.972;2022-08-21T04:32:50;7.05;;;4.47;;
54193;SDS011;40102;50.906;6.972;2022-08-21T04:35:17;8.50;;;4.38;;
54193;SDS011;40102;50.906;6.972;2022-08-21T04:37:44;5.80;;;3.60;;
54193;SDS011;40102;50.906;6.972;2022-08-21T04:40:11;9.35;;;4.15;;
54193;SDS011;40102;50.906;6.972;2022-08-21T04:48:05;7.45;;;4.05;;
54193;SDS011;40102;50.906;6.972;2022-08-21T04:50:43;7.30;;;4.55;;
54193;SDS011;40102;50.906;6.972;2022-08-21T04:53:16;5.47;;;3.88;;
54193;SDS011;40102;50.906;6.972;2022-08-21T04:55:45;8.20;;;4.03;;
54193;SDS011;40102;50.906;6.972;2022-08-21T04:58:13;5.60;;;3.70;;
54193;SDS011;40102;50.906;6.972;2022-08-21T05:00:42;8.43;;;4.55;;
54193;SDS011;40102;50.906;6.972;2022-08-21T05:03:08;6.00;;;3.83;;
54193;SDS011;40102;50.906;6.972;2022-08-21T05:05:36;5.95;;;3.85;;
54193;SDS011;40102;50.906;6.972;2022-08-21T05:08:02;6.88;;;3.60;;
54193;SDS011;40102;50.906;6.972;2022-08-21T05:10:28;9.50;;;3.92;;
54193;SDS011;40102;50.906;6.972;2022-08-21T05:12:56;6.95;;;4.32;;
54193;SDS011;40102;50.906;6.972;2022-08-21T05:15:22;7.63;;;4.05;;
54193;SDS011;40102;50.906;6.972;2022-08-21T05:17:47;7.10;;;4.18;;
54193;SDS011;40102;50.906;6.972;2022-08-21T05:20:13;5.30;;;3.88;;
54193;SDS011;40102;50.906;6.972;2022-08-21T05:22:39;6.10;;;4.20;;
54193;SDS011;40102;50.906;6.972;2022-08-21T05:25:05;7.15;;;3.88;;
54193;SDS011;40102;50.906;6.972;2022-08-21T05:27:31;6.07;;;3.78;;
54193;SDS011;40102;50.906;6.972;2022-08-21T05:29:57;9.02;;;4.45;;
54193;SDS011;40102;50.906;6.972;2022-08-21T05:32:23;7.65;;;3.78;;
54193;SDS011;40102;50.906;6.972;2022-08-21T05:34:48;8.15;;;4.70;;
54193;SDS011;40102;50.906;6.972;2022-08-21T05:37:14;7.65;;;4.55;;
54193;SDS011;40102;50.906;6.972;2022-08-21T05:39:40;6.53;;;4.15;;
54193;SDS011;40102;50.906;6.972;2022-08-21T05:42:05;6.70;;;4.15;;
54193;SDS011;40102;50.906;6.972;2022-08-21T05:44:31;7.22;;;3.80;;
54193;SDS011;40102;50.906;6.972;2022-08-21T05:47:04;7.40;;;4.00;;
54193;SDS011;40102;50.906;6.972;2022-08-21T05:49:34;6.60;;;4.20;;
54193;SDS011;40102;50.906;6.972;2022-08-21T05:52:00;8.13;;;4.20;;
54193;SDS011;40102;50.906;6.972;2022-08-21T05:54:26;6.95;;;3.60;;
54193;SDS011;40102;50.906;6.972;2022-08-21T05:56:52;7.97;;;4.05;;
54193;SDS011;40102;50.906;6.972;2022-08-21T05:59:17;4.65;;;3.25;;
54193;SDS011;40102;50.906;6.972;2022-08-21T06:01:43;4.25;;;3.13;;
54193;SDS011;40102;50.906;6.972;2022-08-21T06:04:10;7.00;;;4.22;;
54193;SDS011;40102;50.906;6.972;2022-08-21T06:06:36;6.22;;;4.00;;
54193;SDS011;40102;50.906;6.972;2022-08-21T06:09:02;8.57;;;4.22;;
54193;SDS011;40102;50.906;6.972;2022-08-21T06:11:30;5.40;;;3.30;;
54193;SDS011;40102;50.906;6.972;2022-08-21T06:13:57;6.63;;;3.85;;
54193;SDS011;40102;50.906;6.972;2022-08-21T06:16:23;5.97;;;3.78;;
54193;SDS011;40102;50.906;6.972;2022-08-21T06:18:49;6.70;;;3.80;;
54193;SDS011;40102;50.906;6.972;2022-08-21T06:21:15;6.32;;;3.67;;
54193;SDS011;40102;50.906;6.972;2022-08-21T06:23:41;6.82;;;3.80;;
54193;SDS011;40102;50.906;6.972;2022-08-21T06:26:10;7.13;;;3.67;;
54193;SDS011;40102;50.906;6.972;2022-08-21T06:28:38;7.90;;;3.80;;
54193;SDS011;40102;50.906;6.972;2022-08-21T06:31:14;4.93;;;3.20;;
54193;SDS011;40102;50.906;6.972;2022-08-21T06:33:41;4.65;;;3.20;;
54193;SDS011;40102;50.906;6.972;2022-08-21T06:36:07;7.07;;;3.38;;
54193;SDS011;40102;50.906;6.972;2022-08-21T06:38:33;4.43;;;2.75;;
54193;SDS011;40102;50.906;6.972;2022-08-21T06:41:00;5.22;;;3.35;;
54193;SDS011;40102;50.906;6.972;2022-08-21T06:43:26;7.00;;;3.10;;
54193;SDS011;40102;50.906;6.972;2022-08-21T06:45:51;4.00;;;2.22;;
54193;SDS011;40102;50.906;6.972;2022-08-21T06:48:16;5.80;;;2.30;;
54193;SDS011;40102;50.906;6.972;2022-08-21T06:50:42;3.58;;;2.40;;
54193;SDS011;40102;50.906;6.972;2022-08-21T06:53:09;4.55;;;2.50;;
54193;SDS011;40102;50.906;6.972;2022-08-21T06:55:37;5.32;;;2.85;;
54193;SDS011;40102;50.906;6.972;2022-08-21T06:58:06;4.28;;;2.70;;
54193;SDS011;40102;50.906;6.972;2022-08-21T07:00:38;3.78;;;2.20;;
54193;SDS011;40102;50.906;6.972;2022-08-21T07:03:04;3.03;;;2.25;;
54193;SDS011;40102;50.906;6.972;2022-08-21T07:05:30;4.47;;;2.78;;
54193;SDS011;40102;50.906;6.972;2022-08-21T07:07:56;4.00;;;2.38;;
54193;SDS011;40102;50.906;6.972;2022-08-21T07:10:23;5.40;;;2.03;;
54193;SDS011;40102;50.906;6.972;2022-08-21T07:12:49;4.43;;;2.28;;
54193;SDS011;40102;50.906;6.972;2022-08-21T07:15:15;3.25;;;1.70;;
54193;SDS011;40102;50.906;6.972;2022-08-21T07:17:41;4.05;;;2.00;;
54193;SDS011;40102;50.906;6.972;2022-08-21T07:20:07;2.88;;;1.85;;
54193;SDS011;40102;50.906;6.972;2022-08-21T07:22:33;3.33;;;1.83;;
54193;SDS011;40102;50.906;6.972;2022-08-21T07:25:00;2.55;;;1.75;;
54193;SDS011;40102;50.906;6.972;2022-08-21T07:27:26;3.40;;;1.60;;
54193;SDS011;40102;50.906;6.972;2022-08-21T07:29:52;3.88;;;1.70;;
54193;SDS011;40102;50.906;6.972;2022-08-21T07:32:17;4.93;;;2.50;;
54193;SDS011;40102;50.906;6.972;2022-08-21T07:34:43;4.50;;;2.30;;
54193;SDS011;40102;50.906;6.972;2022-08-21T07:37:08;3.20;;;2.10;;
54193;SDS011;40102;50.906;6.972;2022-08-21T07:39:34;6.07;;;2.55;;
54193;SDS011;40102;50.906;6.972;2022-08-21T07:41:59;4.78;;;2.40;;
54193;SDS011;40102;50.906;6.972;2022-08-21T07:44:24;3.25;;;2.08;;
54193;SDS011;40102;50.906;6.972;2022-08-21T07:46:50;2.80;;;1.50;;
54193;SDS011;40102;50.906;6.972;2022-08-21T07:49:15;6.53;;;2.20;;
54193;SDS011;40102;50.906;6.972;2022-08-21T07:51:40;4.15;;;2.13;;
54193;SDS011;40102;50.906;6.972;2022-08-21T07:54:06;4.28;;;2.05;;
54193;SDS011;40102;50.906;6.972;2022-08-21T07:56:31;3.30;;;1.55;;
54193;SDS011;40102;50.906;6.972;2022-08-21T07:58:57;2.88;;;1.67;;
54193;SDS011;40102;50.906;6.972;2022-08-21T08:01:23;2.95;;;1.42;;
54193;SDS011;40102;50.906;6.972;2022-08-21T08:03:49;3.25;;;1.70;;
54193;SDS011;40102;50.906;6.972;2022-08-21T08:06:14;4.30;;;1.60;;
54193;SDS011;40102;50.906;6.972;2022-08-21T08:08:41;4.53;;;1.33;;
54193;SDS011;40102;50.906;6.972;2022-08-21T08:11:07;4.07;;;1.48;;
54193;SDS011;40102;50.906;6.972;2022-08-21T08:13:45;3.38;;;1.40;;
54193;SDS011;40102;50.906;6.972;2022-08-21T08:16:12;5.75;;;1.60;;
54193;SDS011;40102;50.906;6.972;2022-08-21T08:18:39;3.25;;;1.27;;
54193;SDS011;40102;50.906;6.972;2022-08-21T08:21:06;3.35;;;1.20;;
54193;SDS011;40102;50.906;6.972;2022-08-21T08:23:32;2.42;;;1.10;;
54193;SDS011;40102;50.906;6.972;2022-08-21T08:25:58;4.53;;;1.30;;
54193;SDS011;40102;50.906;6.972;2022-08-21T08:28:24;3.95;;;1.13;;
54193;SDS011;40102;50.906;6.972;2022-08-21T08:30:49;5.68;;;1.38;;
54193;SDS011;40102;50.906;6.972;2022-08-21T08:33:16;3.92;;;1.42;;
54193;SDS011;40102;50.906;6.972;2022-08-21T08:35:42;7.03;;;1.90;;
54193;SDS011;40102;50.906;6.972;2022-08-21T08:38:10;3.28;;;1.15;;
54193;SDS011;40102;50.906;6.972;2022-08-21T08:40:40;3.50;;;1.23;;
54193;SDS011;40102;50.906;6.972;2022-08-21T08:43:11;4.85;;;1.40;;
54193;SDS011;40102;50.906;6.972;2022-08-21T08:45:39;3.92;;;1.20;;
54193;SDS011;40102;50.906;6.972;2022-08-21T08:48:09;5.30;;;1.20;;
54193;SDS011;40102;50.906;6.972;2022-08-21T08:50:54;2.67;;;1.33;;
54193;SDS011;40102;50.906;6.972;2022-08-21T08:53:32;4.38;;;1.48;;
54193;SDS011;40102;50.906;6.972;2022-08-21T08:56:07;4.45;;;1.33;;
54193;SDS011;40102;50.906;6.972;2022-08-21T08:58:34;5.53;;;1.48;;
54193;SDS011;40102;50.906;6.972;2022-08-21T09:01:06;5.13;;;1.10;;
54193;SDS011;40102;50.906;6.972;2022-08-21T09:03:40;5.50;;;1.70;;
54193;SDS011;40102;50.906;6.972;2022-08-21T09:06:12;3.40;;;1.00;;
54193;SDS011;40102;50.906;6.972;2022-08-21T09:09:10;4.03;;;1.20;;
54193;SDS011;40102;50.906;6.972;2022-08-21T09:11:59;7.03;;;1.40;;
54193;SDS011;40102;50.906;6.972;2022-08-21T09:14:44;3.08;;;1.23;;
54193;SDS011;40102;50.906;6.972;2022-08-21T09:18:10;3.58;;;1.10;;
54193;SDS011;40102;50.906;6.972;2022-08-21T09:26:00;3.50;;;1.10;;
54193;SDS011;40102;50.906;6.972;2022-08-21T09:28:25;2.95;;;1.30;;
54193;SDS011;40102;50.906;6.972;2022-08-21T09:30:54;4.72;;;1.60;;
54193;SDS011;40102;50.906;6.972;2022-08-21T09:33:20;4.15;;;1.30;;
54193;SDS011;40102;50.906;6.972;2022-08-21T09:35:53;2.92;;;1.10;;
54193;SDS011;40102;50.906;6.972;2022-08-21T09:38:27;2.05;;;0.90;;
54193;SDS011;40102;50.906;6.972;2022-08-21T09:41:01;3.55;;;1.40;;
54193;SDS011;40102;50.906;6.972;2022-08-21T09:43:29;5.55;;;1.30;;
54193;SDS011;40102;50.906;6.972;2022-08-21T09:46:03;5.28;;;1.27;;
54193;SDS011;40102;50.906;6.972;2022-08-21T09:48:43;4.87;;;1.63;;
54193;SDS011;40102;50.906;6.972;2022-08-21T09:51:12;4.03;;;1.45;;
54193;SDS011;40102;50.906;6.972;2022-08-21T09:54:19;2.95;;;1.20;;
54193;SDS011;40102;50.906;6.972;2022-08-21T09:56:57;2.42;;;1.00;;
54193;SDS011;40102;50.906;6.972;2022-08-21T09:59:43;3.45;;;0.98;;
54193;SDS011;40102;50.906;6.972;2022-08-21T10:02:21;3.95;;;1.23;;
54193;SDS011;40102;50.906;6.972;2022-08-21T10:04:56;5.05;;;1.73;;
54193;SDS011;40102;50.906;6.972;2022-08-21T10:07:28;6.95;;;1.70;;
54193;SDS011;40102;50.906;6.972;2022-08-21T10:10:04;4.47;;;1.42;;
54193;SDS011;40102;50.906;6.972;2022-08-21T10:15:10;6.47;;;1.35;;
54193;SDS011;40102;50.906;6.972;2022-08-21T10:20:34;3.92;;;1.30;;
54193;SDS011;40102;50.906;6.972;2022-08-21T10:31:31;3.25;;;1.30;;
54193;SDS011;40102;50.906;6.972;2022-08-21T10:39:35;3.00;;;1.10;;
54193;SDS011;40102;50.906;6.972;2022-08-21T10:45:22;4.00;;;1.42;;
54193;SDS011;40102;50.906;6.972;2022-08-21T10:50:59;4.10;;;0.90;;
54193;SDS011;40102;50.906;6.972;2022-08-21T10:53:42;6.10;;;1.30;;
54193;SDS011;40102;50.906;6.972;2022-08-21T10:56:29;4.43;;;1.20;;
54193;SDS011;40102;50.906;6.972;2022-08-21T11:01:26;4.15;;;1.08;;
54193;SDS011;40102;50.906;6.972;2022-08-21T11:06:41;4.13;;;0.93;;
54193;SDS011;40102;50.906;6.972;2022-08-21T11:09:15;5.30;;;1.35;;
54193;SDS011;40102;50.906;6.972;2022-08-21T11:11:46;2.10;;;0.90;;
54193;SDS011;40102;50.906;6.972;2022-08-21T11:16:58;4.95;;;1.23;;
54193;SDS011;40102;50.906;6.972;2022-08-21T11:19:42;3.83;;;0.98;;
54193;SDS011;40102;50.906;6.972;2022-08-21T11:22:18;3.60;;;1.17;;
54193;SDS011;40102;50.906;6.972;2022-08-21T11:24:54;5.75;;;1.45;;
54193;SDS011;40102;50.906;6.972;2022-08-21T11:27:30;3.72;;;1.20;;
54193;SDS011;40102;50.906;6.972;2022-08-21T11:30:02;2.28;;;0.93;;
54193;SDS011;40102;50.906;6.972;2022-08-21T11:43:21;6.25;;;1.33;;
54193;SDS011;40102;50.906;6.972;2022-08-21T11:49:06;5.95;;;1.30;;
54193;SDS011;40102;50.906;6.972;2022-08-21T11:52:14;2.05;;;0.80;;
54193;SDS011;40102;50.906;6.972;2022-08-21T12:00:32;4.00;;;1.00;;
54193;SDS011;40102;50.906;6.972;2022-08-21T12:03:34;2.72;;;0.95;;
54193;SDS011;40102;50.906;6.972;2022-08-21T12:06:02;5.88;;;1.30;;
54193;SDS011;40102;50.906;6.972;2022-08-21T12:08:32;2.65;;;0.82;;
54193;SDS011;40102;50.906;6.972;2022-08-21T12:11:45;6.72;;;1.20;;
54193;SDS011;40102;50.906;6.972;2022-08-21T12:16:32;2.65;;;0.90;;
54193;SDS011;40102;50.906;6.972;2022-08-21T12:19:13;3.42;;;0.90;;
54193;SDS011;40102;50.906;6.972;2022-08-21T12:21:49;2.97;;;0.93;;
54193;SDS011;40102;50.906;6.972;2022-08-21T12:26:56;3.17;;;0.82;;
54193;SDS011;40102;50.906;6.972;2022-08-21T12:29:50;3.38;;;1.02;;
54193;SDS011;40102;50.906;6.972;2022-08-21T12:32:23;3.67;;;1.00;;
54193;SDS011;40102;50.906;6.972;2022-08-21T12:34:54;4.60;;;1.40;;
54193;SDS011;40102;50.906;6.972;2022-08-21T12:37:34;4.45;;;1.10;;
54193;SDS011;40102;50.906;6.972;2022-08-21T12:40:09;3.38;;;1.10;;
54193;SDS011;40102;50.906;6.972;2022-08-21T12:42:43;3.10;;;0.90;;
54193;SDS011;40102;50.906;6.972;2022-08-21T12:50:56;4.35;;;1.17;;
54193;SDS011;40102;50.906;6.972;2022-08-21T12:56:09;4.10;;;1.00;;
54193;SDS011;40102;50.906;6.972;2022-08-21T12:58:40;5.05;;;1.23;;
54193;SDS011;40102;50.906;6.972;2022-08-21T13:01:19;4.28;;;1.02;;
54193;SDS011;40102;50.906;6.972;2022-08-21T13:03:49;2.92;;;1.08;;
54193;SDS011;40102;50.906;6.972;2022-08-21T13:06:18;5.55;;;1.40;;
54193;SDS011;40102;50.906;6.972;2022-08-21T13:08:46;5.82;;;1.45;;
54193;SDS011;40102;50.906;6.972;2022-08-21T13:13:43;4.72;;;1.00;;
54193;SDS011;40102;50.906;6.972;2022-08-21T13:16:12;3.33;;;1.10;;
54193;SDS011;40102;50.906;6.972;2022-08-21T13:19:19;2.22;;;1.00;;
54193;SDS011;40102;50.906;6.972;2022-08-21T13:21:43;3.20;;;1.00;;
54193;SDS011;40102;50.906;6.972;2022-08-21T13:24:22;3.50;;;1.00;;
54193;SDS011;40102;50.906;6.972;2022-08-21T13:27:00;3.15;;;1.05;;
54193;SDS011;40102;50.906;6.972;2022-08-21T13:29:30;7.28;;;1.35;;
54193;SDS011;40102;50.906;6.972;2022-08-21T13:32:00;2.53;;;1.02;;
54193;SDS011;40102;50.906;6.972;2022-08-21T13:34:34;3.67;;;1.45;;
54193;SDS011;40102;50.906;6.972;2022-08-21T13:37:05;5.38;;;1.20;;
54193;SDS011;40102;50.906;6.972;2022-08-21T13:39:33;4.93;;;1.15;;
54193;SDS011;40102;50.906;6.972;2022-08-21T13:42:00;3.42;;;1.10;;
54193;SDS011;40102;50.906;6.972;2022-08-21T13:44:35;3.33;;;1.10;;
54193;SDS011;40102;50.906;6.972;2022-08-21T13:47:05;1.92;;;0.98;;
54193;SDS011;40102;50.906;6.972;2022-08-21T13:49:35;4.38;;;1.20;;
54193;SDS011;40102;50.906;6.972;2022-08-21T13:52:03;7.70;;;1.02;;
54193;SDS011;40102;50.906;6.972;2022-08-21T13:54:36;5.90;;;1.10;;
54193;SDS011;40102;50.906;6.972;2022-08-21T13:57:14;4.47;;;1.48;;
54193;SDS011;40102;50.906;6.972;2022-08-21T13:59:42;4.38;;;1.00;;
54193;SDS011;40102;50.906;6.972;2022-08-21T14:02:13;3.20;;;0.93;;
54193;SDS011;40102;50.906;6.972;2022-08-21T14:04:50;4.60;;;1.23;;
54193;SDS011;40102;50.906;6.972;2022-08-21T14:07:31;2.40;;;1.08;;
54193;SDS011;40102;50.906;6.972;2022-08-21T14:10:01;5.90;;;1.13;;
54193;SDS011;40102;50.906;6.972;2022-08-21T14:12:30;3.10;;;1.00;;
54193;SDS011;40102;50.906;6.972;2022-08-21T14:15:18;4.82;;;1.25;;
54193;SDS011;40102;50.906;6.972;2022-08-21T14:17:53;3.35;;;1.30;;
54193;SDS011;40102;50.906;6.972;2022-08-21T14:20:33;4.88;;;1.10;;
54193;SDS011;40102;50.906;6.972;2022-08-21T14:22:59;4.28;;;1.20;;
54193;SDS011;40102;50.906;6.972;2022-08-21T14:30:46;2.33;;;0.90;;
54193;SDS011;40102;50.906;6.972;2022-08-21T14:33:13;3.50;;;1.05;;
54193;SDS011;40102;50.906;6.972;2022-08-21T14:35:43;4.47;;;1.20;;
54193;SDS011;40102;50.906;6.972;2022-08-21T14:38:13;5.70;;;1.40;;
54193;SDS011;40102;50.906;6.972;2022-08-21T14:40:41;4.53;;;1.10;;
54193;SDS011;40102;50.906;6.972;2022-08-21T14:43:07;3.67;;;1.40;;
54193;SDS011;40102;50.906;6.972;2022-08-21T14:45:33;3.35;;;1.33;;
54193;SDS011;40102;50.906;6.972;2022-08-21T14:48:01;2.45;;;0.93;;
54193;SDS011;40102;50.906;6.972;2022-08-21T14:50:27;4.50;;;0.90;;
54193;SDS011;40102;50.906;6.972;2022-08-21T14:52:53;3.03;;;0.80;;
54193;SDS011;40102;50.906;6.972;2022-08-21T14:55:18;2.83;;;1.00;;
54193;SDS011;40102;50.906;6.972;2022-08-21T14:57:45;6.72;;;0.93;;
54193;SDS011;40102;50.906;6.972;2022-08-21T15:00:14;1.98;;;0.90;;
54193;SDS011;40102;50.906;6.972;2022-08-21T15:02:42;3.22;;;0.98;;
54193;SDS011;40102;50.906;6.972;2022-08-21T15:05:08;2.67;;;1.00;;
54193;SDS011;40102;50.906;6.972;2022-08-21T15:07:33;2.83;;;1.05;;
54193;SDS011;40102;50.906;6.972;2022-08-21T15:09:59;2.38;;;0.80;;
54193;SDS011;40102;50.906;6.972;2022-08-21T15:12:24;4.70;;;1.00;;
54193;SDS011;40102;50.906;6.972;2022-08-21T15:14:50;3.17;;;0.90;;
54193;SDS011;40102;50.906;6.972;2022-08-21T15:17:17;2.97;;;0.80;;
54193;SDS011;40102;50.906;6.972;2022-08-21T15:19:43;1.02;;;0.70;;
54193;SDS011;40102;50.906;6.972;2022-08-21T15:22:08;3.95;;;0.90;;
54193;SDS011;40102;50.906;6.972;2022-08-21T15:24:34;2.38;;;1.00;;
54193;SDS011;40102;50.906;6.972;2022-08-21T15:27:00;3.10;;;1.08;;
54193;SDS011;40102;50.906;6.972;2022-08-21T15:29:27;2.28;;;0.80;;
54193;SDS011;40102;50.906;6.972;2022-08-21T15:31:55;1.98;;;0.73;;
54193;SDS011;40102;50.906;6.972;2022-08-21T15:37:41;3.20;;;0.85;;
54193;SDS011;40102;50.906;6.972;2022-08-21T15:40:07;2.08;;;0.80;;
54193;SDS011;40102;50.906;6.972;2022-08-21T15:42:33;4.10;;;1.10;;
54193;SDS011;40102;50.906;6.972;2022-08-21T15:44:59;3.85;;;0.93;;
54193;SDS011;40102;50.906;6.972;2022-08-21T15:47:27;4.35;;;1.00;;
54193;SDS011;40102;50.906;6.972;2022-08-21T15:49:58;3.35;;;0.77;;
54193;SDS011;40102;50.906;6.972;2022-08-21T15:52:24;3.88;;;1.10;;
54193;SDS011;40102;50.906;6.972;2022-08-21T15:54:52;3.03;;;0.90;;
54193;SDS011;40102;50.906;6.972;2022-08-21T15:57:19;2.30;;;1.10;;
54193;SDS011;40102;50.906;6.972;2022-08-21T15:59:48;2.70;;;0.90;;
54193;SDS011;40102;50.906;6.972;2022-08-21T16:02:17;2.13;;;0.90;;
54193;SDS011;40102;50.906;6.972;2022-08-21T16:04:46;2.97;;;1.10;;
54193;SDS011;40102;50.906;6.972;2022-08-21T16:07:11;4.53;;;1.00;;
54193;SDS011;40102;50.906;6.972;2022-08-21T16:09:36;3.17;;;0.90;;
54193;SDS011;40102;50.906;6.972;2022-08-21T16:12:05;2.58;;;1.17;;
54193;SDS011;40102;50.906;6.972;2022-08-21T16:14:38;4.10;;;1.00;;
54193;SDS011;40102;50.906;6.972;2022-08-21T16:17:07;2.75;;;1.20;;
54193;SDS011;40102;50.906;6.972;2022-08-21T16:19:32;3.72;;;1.08;;
54193;SDS011;40102;50.906;6.972;2022-08-21T16:21:59;2.47;;;1.00;;
54193;SDS011;40102;50.906;6.972;2022-08-21T16:24:25;2.00;;;1.00;;
54193;SDS011;40102;50.906;6.972;2022-08-21T16:26:50;2.97;;;0.80;;
54193;SDS011;40102;50.906;6.972;2022-08-21T16:29:16;2.85;;;1.17;;
54193;SDS011;40102;50.906;6.972;2022-08-21T16:31:43;3.42;;;1.00;;